»·PEaware :: N335AK KTUS-KDEN

N335AK :: KTUS-KDEN

FLIGHT INFORMATION

Flight Status: Arrived
Operator: Privately registered:
United States
More flights under this callsign
Pilot: Gabor H. (24209)
Aircraft: Unknown
(EPIC)
More flights by this aircraft type
Origin: KTUS Tucson Intl
United States
Destination: KDEN Denver Intl
United States
More flights between these airports :: More routes between these airports
Route: +TUS8 PXR J44 RSK LARKS2
File this flight plan on PilotEdge
Remarks:
Altitude:
(Current/Filed)
33,000ft
Speed:
(Current/Filed)
325kts
Departed: 22-Aug-20 12:18 PM
Arrived: 22-Aug-20 02:33 PM
Distance/Time
Traveled:
554nm/2:15
Distance/Time
To Go:
Arrived

Flight Plot

Page will automatically refresh every two minutes.

Flight plan parsing failed; only flown route is shown


Map Options




Map Legend


Flown Route
Filed Route
Departure Airport
Arrival Airport
Navaid (VOR, NDB)
Fix

Horizontal Profiles

Position Reports

Time Latitude Longitude Heading Altitude Ground
Speed
22-Aug-20 11:46 32.127417 -110.942289 317 2573ft 0kts
22-Aug-20 11:47 32.127417 -110.942289 317 2573ft 0kts
22-Aug-20 11:48 32.127417 -110.942289 317 2573ft 0kts
22-Aug-20 11:49 32.127417 -110.942289 317 2573ft 0kts
22-Aug-20 11:50 32.127417 -110.942289 317 2573ft 0kts
22-Aug-20 11:51 32.127417 -110.942289 317 2573ft 0kts
22-Aug-20 11:52 32.127417 -110.942289 317 2573ft 0kts
22-Aug-20 11:53 32.127417 -110.942289 317 2573ft 0kts
22-Aug-20 11:54 32.127417 -110.942289 317 2573ft 0kts
22-Aug-20 11:55 32.127417 -110.942289 317 2573ft 0kts
22-Aug-20 11:56 32.127417 -110.942289 317 2573ft 0kts
22-Aug-20 11:57 32.127417 -110.942289 317 2573ft 0kts
22-Aug-20 11:58 32.127417 -110.942289 317 2573ft 0kts
22-Aug-20 11:59 32.127417 -110.942289 317 2573ft 0kts
22-Aug-20 12:00 32.127417 -110.942289 317 2573ft 0kts
22-Aug-20 12:01 32.127417 -110.942289 317 2573ft 0kts
22-Aug-20 12:02 32.127417 -110.942289 317 2573ft 0kts
22-Aug-20 12:03 32.127417 -110.942289 317 2573ft 0kts
22-Aug-20 12:04 32.127417 -110.942289 317 2573ft 0kts
22-Aug-20 12:05 32.127417 -110.942289 317 2573ft 0kts
22-Aug-20 12:06 32.127417 -110.942289 317 2573ft 0kts
22-Aug-20 12:07 32.127417 -110.942289 317 2573ft 0kts
22-Aug-20 12:08 32.127417 -110.942289 317 2573ft 0kts
22-Aug-20 12:09 32.128296 -110.943299 325 2569ft 5kts
22-Aug-20 12:10 32.129410 -110.942213 48 2569ft 1kts
22-Aug-20 12:11 32.129913 -110.942284 317 2568ft 2kts
22-Aug-20 12:12 32.129999 -110.942378 317 2568ft 0kts
22-Aug-20 12:13 32.129999 -110.942378 317 2568ft 0kts
22-Aug-20 12:14 32.129999 -110.942378 317 2568ft 0kts
22-Aug-20 12:15 32.130434 -110.943407 224 2566ft 0kts
22-Aug-20 12:16 32.130434 -110.943408 225 2566ft 0kts
22-Aug-20 12:17 32.115956 -110.980731 269 3843ft 199kts
22-Aug-20 12:18 32.113673 -111.052197 269 6618ft 229kts
22-Aug-20 12:19 32.115140 -111.128448 302 9429ft 241kts
22-Aug-20 12:20 32.170148 -111.173430 329 12124ft 251kts
22-Aug-20 12:21 32.230614 -111.215771 334 14781ft 255kts
22-Aug-20 12:22 32.294212 -111.255232 334 16525ft 262kts
22-Aug-20 12:23 32.359199 -111.295477 334 18076ft 266kts
22-Aug-20 12:24 32.424931 -111.336253 334 19581ft 266kts
22-Aug-20 12:25 32.490975 -111.371583 6 21064ft 257kts
22-Aug-20 12:26 32.548905 -111.326878 32 22597ft 248kts
22-Aug-20 12:27 32.607201 -111.284148 30 24087ft 246kts
22-Aug-20 12:28 32.664958 -111.242219 30 25571ft 242kts
22-Aug-20 12:29 32.721347 -111.201236 29 27007ft 238kts
22-Aug-20 12:30 32.778325 -111.159762 29 28237ft 243kts
22-Aug-20 12:31 32.836507 -111.117344 29 29312ft 248kts
22-Aug-20 12:32 32.896135 -111.073804 29 30224ft 255kts
22-Aug-20 12:33 32.957075 -111.029233 29 31035ft 260kts
22-Aug-20 12:34 33.019178 -110.983733 28 31743ft 265kts
22-Aug-20 12:35 33.082377 -110.937350 28 32411ft 269kts
22-Aug-20 12:36 33.146278 -110.890384 28 32974ft 274kts
22-Aug-20 12:37 33.213752 -110.840697 28 32981ft 295kts
22-Aug-20 12:38 33.285048 -110.788085 28 32975ft 307kts
22-Aug-20 12:39 33.358576 -110.733728 29 32974ft 313kts
22-Aug-20 12:40 33.432209 -110.679179 29 32972ft 311kts
22-Aug-20 12:41 33.505203 -110.624999 28 33085ft 306kts
22-Aug-20 12:42 33.577172 -110.571473 28 33236ft 303kts
22-Aug-20 12:43 33.648772 -110.518125 28 33284ft 305kts
22-Aug-20 12:44 33.721178 -110.464058 28 33284ft 306kts
22-Aug-20 12:45 33.793741 -110.409767 28 33284ft 307kts
22-Aug-20 12:46 33.866187 -110.355452 28 33284ft 308kts
22-Aug-20 12:47 33.938969 -110.300779 29 33281ft 308kts
22-Aug-20 12:48 34.011377 -110.246276 29 33281ft 308kts
22-Aug-20 12:49 34.083820 -110.191630 29 33281ft 308kts
22-Aug-20 12:50 34.156465 -110.136721 29 33283ft 308kts
22-Aug-20 12:51 34.229197 -110.081634 29 33284ft 308kts
22-Aug-20 12:52 34.301756 -110.026565 29 33277ft 309kts
22-Aug-20 12:53 34.374248 -109.971427 29 33275ft 309kts
22-Aug-20 12:54 34.446877 -109.916080 29 33272ft 309kts
22-Aug-20 12:55 34.519517 -109.860602 29 33245ft 309kts
22-Aug-20 12:56 34.592286 -109.804912 29 33229ft 309kts
22-Aug-20 12:57 34.664894 -109.749227 29 33225ft 309kts
22-Aug-20 12:58 34.737318 -109.693568 29 33221ft 309kts
22-Aug-20 12:59 34.809962 -109.637626 29 33219ft 309kts
22-Aug-20 13:00 34.882354 -109.581751 29 33219ft 309kts
22-Aug-20 13:01 34.954830 -109.525689 28 33219ft 309kts
22-Aug-20 13:02 35.027194 -109.469601 28 33219ft 309kts
22-Aug-20 13:03 35.099374 -109.413556 27 33239ft 308kts
22-Aug-20 13:04 35.171775 -109.357203 27 33271ft 308kts
22-Aug-20 13:05 35.244098 -109.300787 28 33283ft 308kts
22-Aug-20 13:06 35.316225 -109.244408 28 33283ft 309kts
22-Aug-20 13:07 35.388787 -109.187560 28 33265ft 309kts
22-Aug-20 13:08 35.460954 -109.130900 28 33263ft 309kts
22-Aug-20 13:09 35.524757 -109.063152 72 33274ft 324kts
22-Aug-20 13:10 35.535783 -108.952783 78 33265ft 326kts
22-Aug-20 13:11 35.579504 -108.871296 24 33266ft 295kts
22-Aug-20 13:13 35.651885 -108.823656 22 33259ft 295kts
22-Aug-20 13:14 35.724107 -108.776622 22 33257ft 295kts
22-Aug-20 13:15 35.796359 -108.729479 22 33255ft 294kts
22-Aug-20 13:16 35.868585 -108.682251 22 33255ft 294kts
22-Aug-20 13:17 35.940876 -108.634883 22 33258ft 294kts
22-Aug-20 13:18 36.012974 -108.587546 22 33256ft 294kts
22-Aug-20 13:19 36.085280 -108.539967 22 33222ft 295kts
22-Aug-20 13:20 36.157936 -108.492068 22 33175ft 297kts
22-Aug-20 13:21 36.230773 -108.443937 22 33158ft 297kts
22-Aug-20 13:22 36.303576 -108.395733 22 33159ft 297kts
22-Aug-20 13:23 36.375811 -108.347794 23 33157ft 296kts
22-Aug-20 13:24 36.448495 -108.299464 23 33154ft 296kts
22-Aug-20 13:25 36.520887 -108.251218 23 33154ft 296kts
22-Aug-20 13:26 36.593126 -108.202977 23 33153ft 295kts
22-Aug-20 13:27 36.665364 -108.154633 23 33153ft 295kts
22-Aug-20 13:28 36.737498 -108.106251 23 33153ft 295kts
22-Aug-20 13:28 36.794209 -108.057566 30 33153ft 298kts
22-Aug-20 13:29 36.861296 -107.996957 30 33187ft 297kts
22-Aug-20 13:31 36.942579 -107.964478 320 33275ft 276kts
22-Aug-20 13:32 37.000018 -108.029167 318 33253ft 279kts
22-Aug-20 13:32 37.048461 -108.082762 318 33226ft 279kts
22-Aug-20 13:33 37.114773 -108.122074 17 33219ft 297kts
22-Aug-20 13:34 37.176384 -108.047755 39 33242ft 310kts
22-Aug-20 13:35 37.236921 -107.970592 39 33265ft 311kts
22-Aug-20 13:36 37.297623 -107.893047 39 33267ft 312kts
22-Aug-20 13:37 37.358503 -107.815069 39 33268ft 313kts
22-Aug-20 13:38 37.419265 -107.737045 39 33266ft 313kts
22-Aug-20 13:39 37.480131 -107.658706 39 33291ft 313kts
22-Aug-20 13:40 37.540856 -107.580356 39 33302ft 313kts
22-Aug-20 13:41 37.601590 -107.501787 39 33272ft 314kts
22-Aug-20 13:42 37.662387 -107.423151 34 33344ft 310kts
22-Aug-20 13:43 37.737117 -107.429180 338 33403ft 280kts
22-Aug-20 13:44 37.811247 -107.459798 338 33450ft 281kts
22-Aug-20 13:45 37.885431 -107.490542 338 33461ft 282kts
22-Aug-20 13:46 37.959852 -107.521444 338 33468ft 282kts
22-Aug-20 13:47 38.034611 -107.552427 338 33465ft 282kts
22-Aug-20 13:48 38.109309 -107.583460 338 33437ft 283kts
22-Aug-20 13:49 38.184742 -107.614785 338 33319ft 287kts
22-Aug-20 13:50 38.260647 -107.646447 338 33216ft 288kts
22-Aug-20 13:51 38.336256 -107.677913 338 33209ft 286kts
22-Aug-20 13:52 38.411879 -107.709492 338 33213ft 285kts
22-Aug-20 13:53 38.487116 -107.740799 338 33212ft 285kts
22-Aug-20 13:54 38.553394 -107.707431 72 33222ft 328kts
22-Aug-20 13:55 38.566301 -107.591883 74 33212ft 331kts
22-Aug-20 13:56 38.582524 -107.475935 74 33225ft 331kts
22-Aug-20 13:57 38.598586 -107.360298 74 33294ft 330kts
22-Aug-20 13:58 38.614554 -107.244456 75 33346ft 330kts
22-Aug-20 13:59 38.630354 -107.128954 75 33346ft 331kts
22-Aug-20 14:00 38.646103 -107.013136 76 33345ft 331kts
22-Aug-20 14:01 38.661785 -106.896819 78 33348ft 333kts
22-Aug-20 14:02 38.677407 -106.779759 80 33348ft 332kts
22-Aug-20 14:03 38.692791 -106.663685 80 33350ft 331kts
22-Aug-20 14:04 38.708083 -106.547482 80 33351ft 330kts
22-Aug-20 14:05 38.723184 -106.431761 80 33358ft 330kts
22-Aug-20 14:06 38.738412 -106.314144 80 32739ft 349kts
22-Aug-20 14:07 38.754762 -106.186842 81 31079ft 374kts
22-Aug-20 14:08 38.775768 -106.054878 58 29373ft 381kts
22-Aug-20 14:09 38.841910 -105.948515 49 27611ft 383kts
22-Aug-20 14:10 38.910236 -105.843674 49 25815ft 383kts
22-Aug-20 14:11 38.975277 -105.743466 49 23832ft 356kts
22-Aug-20 14:12 39.037987 -105.646555 49 21832ft 347kts
22-Aug-20 14:13 39.098627 -105.552572 49 19843ft 339kts
22-Aug-20 14:14 39.157898 -105.460437 48 17936ft 328kts
22-Aug-20 14:15 39.215040 -105.371368 48 16137ft 319kts
22-Aug-20 14:16 39.271532 -105.283088 49 15081ft 322kts
22-Aug-20 14:17 39.329194 -105.192697 49 15061ft 322kts
22-Aug-20 14:18 39.386471 -105.102162 55 15042ft 323kts
22-Aug-20 14:19 39.385893 -104.988070 97 14059ft 324kts
22-Aug-20 14:20 39.376717 -104.874383 77 12718ft 309kts
22-Aug-20 14:21 39.391930 -104.767920 77 10746ft 283kts
22-Aug-20 14:22 39.412944 -104.687783 37 10048ft 190kts
22-Aug-20 14:23 39.446541 -104.652132 36 9743ft 168kts
22-Aug-20 14:24 39.480534 -104.596333 37 9077ft 222kts
22-Aug-20 14:25 39.531899 -104.593303 297 9070ft 234kts
22-Aug-20 14:26 39.577017 -104.652903 330 8550ft 245kts
22-Aug-20 14:27 39.638846 -104.662858 359 8035ft 208kts
22-Aug-20 14:28 39.696285 -104.662262 0 8007ft 219kts
22-Aug-20 14:29 39.757806 -104.661471 0 6854ft 210kts
22-Aug-20 14:30 39.806603 -104.660849 0 5990ft 104kts
22-Aug-20 14:31 39.832217 -104.660417 358 5437ft 42kts
22-Aug-20 14:32 39.836358 -104.661748 215 5437ft 0kts
22-Aug-20 14:33 39.835946 -104.662426 287 5437ft 12kts
22-Aug-20 14:34 39.840007 -104.663468 229 5437ft 13kts
22-Aug-20 14:35 39.839141 -104.665155 266 5437ft 0kts
22-Aug-20 14:36 39.839141 -104.665155 266 5437ft 0kts
22-Aug-20 14:37 39.839141 -104.665155 266 5437ft 0kts

Navigation Log

Ident Type
Flight plan parsing failed, navigation log unavailable